sensor_id;sensor_type;location;lat;lon;timestamp;pressure;altitude;pressure_sealevel;temperature;humidity
78845;BME280;68195;50.854;2.860;2023-12-07T00:01:12;101854.09;;;1.51;100.00
78845;BME280;68195;50.854;2.860;2023-12-07T00:03:38;101831.72;;;1.41;100.00
78845;BME280;68195;50.854;2.860;2023-12-07T00:06:06;101859.25;;;1.54;100.00
78845;BME280;68195;50.854;2.860;2023-12-07T00:08:33;101725.00;;;0.77;100.00
78845;BME280;68195;50.854;2.860;2023-12-07T00:11:03;101818.00;;;1.39;100.00
78845;BME280;68195;50.854;2.860;2023-12-07T00:13:31;101837.81;;;1.57;100.00
78845;BME280;68195;50.854;2.860;2023-12-07T00:15:56;101681.22;;;0.59;100.00
78845;BME280;68195;50.854;2.860;2023-12-07T00:18:22;101767.25;;;1.15;100.00
78845;BME280;68195;50.854;2.860;2023-12-07T00:20:49;101782.66;;;1.12;100.00
78845;BME280;68195;50.854;2.860;2023-12-07T00:23:18;101757.75;;;1.03;100.00
78845;BME280;68195;50.854;2.860;2023-12-07T00:25:43;101790.47;;;1.26;100.00
78845;BME280;68195;50.854;2.860;2023-12-07T00:28:13;101795.66;;;1.38;100.00
78845;BME280;68195;50.854;2.860;2023-12-07T00:30:43;101769.84;;;1.19;100.00
78845;BME280;68195;50.854;2.860;2023-12-07T00:33:11;101855.84;;;1.54;100.00
78845;BME280;68195;50.854;2.860;2023-12-07T00:35:39;101841.25;;;1.54;100.00
78845;BME280;68195;50.854;2.860;2023-12-07T00:38:04;101833.44;;;1.39;100.00
78845;BME280;68195;50.854;2.860;2023-12-07T00:40:33;101796.50;;;1.28;100.00
78845;BME280;68195;50.854;2.860;2023-12-07T00:43:02;101841.25;;;1.62;100.00
78845;BME280;68195;50.854;2.860;2023-12-07T00:45:30;101772.50;;;1.30;100.00
78845;BME280;68195;50.854;2.860;2023-12-07T00:47:55;101777.66;;;1.36;100.00
78845;BME280;68195;50.854;2.860;2023-12-07T00:50:22;101764.75;;;1.32;100.00
78845;BME280;68195;50.854;2.860;2023-12-07T00:52:48;101821.53;;;1.61;100.00
78845;BME280;68195;50.854;2.860;2023-12-07T00:55:16;101825.84;;;1.65;100.00
78845;BME280;68195;50.854;2.860;2023-12-07T00:57:43;101756.19;;;1.30;100.00
78845;BME280;68195;50.854;2.860;2023-12-07T01:00:16;101768.22;;;1.37;100.00
78845;BME280;68195;50.854;2.860;2023-12-07T01:02:42;101797.47;;;1.51;100.00
78845;BME280;68195;50.854;2.860;2023-12-07T01:05:09;101768.19;;;1.28;100.00
78845;BME280;68195;50.854;2.860;2023-12-07T01:07:38;101826.72;;;1.69;100.00
78845;BME280;68195;50.854;2.860;2023-12-07T01:10:04;101676.97;;;0.67;100.00
78845;BME280;68195;50.854;2.860;2023-12-07T01:12:34;101747.56;;;1.20;100.00
78845;BME280;68195;50.854;2.860;2023-12-07T01:15:01;101781.16;;;1.51;100.00
78845;BME280;68195;50.854;2.860;2023-12-07T01:17:26;101779.44;;;1.50;100.00
78845;BME280;68195;50.854;2.860;2023-12-07T01:19:51;101781.19;;;1.58;100.00
78845;BME280;68195;50.854;2.860;2023-12-07T01:22:17;101741.59;;;1.33;100.00
78845;BME280;68195;50.854;2.860;2023-12-07T01:24:45;101803.56;;;1.72;100.00
78845;BME280;68195;50.854;2.860;2023-12-07T01:27:12;101748.47;;;1.36;100.00
78845;BME280;68195;50.854;2.860;2023-12-07T01:29:38;101782.00;;;1.45;100.00
78845;BME280;68195;50.854;2.860;2023-12-07T01:32:06;101673.59;;;0.77;100.00
78845;BME280;68195;50.854;2.860;2023-12-07T01:34:34;101772.59;;;1.52;100.00
78845;BME280;68195;50.854;2.860;2023-12-07T01:37:02;101806.13;;;1.75;100.00
78845;BME280;68195;50.854;2.860;2023-12-07T01:39:29;101641.88;;;0.74;100.00
78845;BME280;68195;50.854;2.860;2023-12-07T01:41:55;101781.19;;;1.61;100.00
78845;BME280;68195;50.854;2.860;2023-12-07T01:44:20;101818.19;;;1.82;100.00
78845;BME280;68195;50.854;2.860;2023-12-07T01:46:46;101792.41;;;1.76;100.00
78845;BME280;68195;50.854;2.860;2023-12-07T01:49:11;101779.53;;;1.71;100.00
78845;BME280;68195;50.854;2.860;2023-12-07T01:51:42;101801.88;;;1.88;100.00
78845;BME280;68195;50.854;2.860;2023-12-07T01:54:07;101726.19;;;1.39;100.00
78845;BME280;68195;50.854;2.860;2023-12-07T01:56:35;101761.47;;;1.60;100.00
78845;BME280;68195;50.854;2.860;2023-12-07T01:59:01;101756.31;;;1.60;100.00
78845;BME280;68195;50.854;2.860;2023-12-07T02:01:31;101817.34;;;1.91;100.00
78845;BME280;68195;50.854;2.860;2023-12-07T02:03:56;101813.03;;;1.85;100.00
78845;BME280;68195;50.854;2.860;2023-12-07T02:06:27;101779.53;;;1.76;100.00
78845;BME280;68195;50.854;2.860;2023-12-07T02:08:52;101774.34;;;1.70;100.00
78845;BME280;68195;50.854;2.860;2023-12-07T02:11:17;101776.09;;;1.77;100.00
78845;BME280;68195;50.854;2.860;2023-12-07T02:13:44;101808.78;;;1.99;100.00
78845;BME280;68195;50.854;2.860;2023-12-07T02:16:23;101797.59;;;1.91;100.00
78845;BME280;68195;50.854;2.860;2023-12-07T02:19:05;101787.28;;;1.85;100.00
78845;BME280;68195;50.854;2.860;2023-12-07T02:21:44;101693.56;;;1.34;100.00
78845;BME280;68195;50.854;2.860;2023-12-07T02:24:20;101751.22;;;1.82;100.00
78845;BME280;68195;50.854;2.860;2023-12-07T02:26:46;101778.72;;;1.95;100.00
78845;BME280;68195;50.854;2.860;2023-12-07T02:29:12;101752.09;;;1.87;100.00
78845;BME280;68195;50.854;2.860;2023-12-07T02:31:37;101704.78;;;1.62;100.00
78845;BME280;68195;50.854;2.860;2023-12-07T02:34:05;101801.94;;;2.14;100.00
78845;BME280;68195;50.854;2.860;2023-12-07T02:36:32;101807.97;;;2.16;100.00
78845;BME280;68195;50.854;2.860;2023-12-07T02:39:02;101764.09;;;1.85;100.00
78845;BME280;68195;50.854;2.860;2023-12-07T02:41:30;101762.38;;;1.87;100.00
78845;BME280;68195;50.854;2.860;2023-12-07T02:43:59;101808.00;;;2.25;100.00
78845;BME280;68195;50.854;2.860;2023-12-07T02:46:30;101744.38;;;1.90;100.00
78845;BME280;68195;50.854;2.860;2023-12-07T02:48:57;101702.28;;;1.82;100.00
78845;BME280;68195;50.854;2.860;2023-12-07T02:51:22;101780.50;;;2.24;100.00
78845;BME280;68195;50.854;2.860;2023-12-07T02:53:50;101783.06;;;2.30;100.00
78845;BME280;68195;50.854;2.860;2023-12-07T02:56:18;101710.88;;;1.89;100.00
78845;BME280;68195;50.854;2.860;2023-12-07T02:58:45;101708.31;;;1.99;100.00
78845;BME280;68195;50.854;2.860;2023-12-07T03:01:15;101773.66;;;2.51;100.00
78845;BME280;68195;50.854;2.860;2023-12-07T03:03:46;101771.06;;;2.47;100.00
78845;BME280;68195;50.854;2.860;2023-12-07T03:06:11;101771.06;;;2.47;100.00
78845;BME280;68195;50.854;2.860;2023-12-07T03:08:37;101705.75;;;2.01;100.00
78845;BME280;68195;50.854;2.860;2023-12-07T03:11:04;101767.59;;;2.44;100.00
78845;BME280;68195;50.854;2.860;2023-12-07T03:13:30;101747.00;;;2.36;100.00
78845;BME280;68195;50.854;2.860;2023-12-07T03:15:58;101683.41;;;2.03;100.00
78845;BME280;68195;50.854;2.860;2023-12-07T03:18:26;101762.47;;;2.58;100.00
78845;BME280;68195;50.854;2.860;2023-12-07T03:20:55;101760.75;;;2.60;100.00
78845;BME280;68195;50.854;2.860;2023-12-07T03:23:23;101763.31;;;2.57;100.00
78845;BME280;68195;50.854;2.860;2023-12-07T03:25:50;101719.50;;;2.32;100.00
78845;BME280;68195;50.854;2.860;2023-12-07T03:28:15;101729.78;;;2.46;100.00
78845;BME280;68195;50.854;2.860;2023-12-07T03:30:43;101761.59;;;2.71;100.00
78845;BME280;68195;50.854;2.860;2023-12-07T03:33:09;101746.13;;;2.65;100.00
78845;BME280;68195;50.854;2.860;2023-12-07T03:35:36;101746.97;;;2.72;100.00
78845;BME280;68195;50.854;2.860;2023-12-07T03:38:06;101683.41;;;2.31;100.00
78845;BME280;68195;50.854;2.860;2023-12-07T03:40:36;101691.13;;;2.43;100.00
78845;BME280;68195;50.854;2.860;2023-12-07T03:43:01;101716.91;;;2.54;100.00
78845;BME280;68195;50.854;2.860;2023-12-07T03:45:31;101759.88;;;2.85;100.00
78845;BME280;68195;50.854;2.860;2023-12-07T03:47:59;101719.47;;;2.57;100.00
78845;BME280;68195;50.854;2.860;2023-12-07T03:50:27;101745.22;;;2.89;100.00
78845;BME280;68195;50.854;2.860;2023-12-07T03:52:53;101704.88;;;2.62;100.00
78845;BME280;68195;50.854;2.860;2023-12-07T03:55:18;101700.56;;;2.62;100.00
78845;BME280;68195;50.854;2.860;2023-12-07T03:57:46;101702.25;;;2.74;100.00
78845;BME280;68195;50.854;2.860;2023-12-07T04:00:12;101586.38;;;2.00;100.00
78845;BME280;68195;50.854;2.860;2023-12-07T04:02:40;101625.00;;;2.23;100.00
78845;BME280;68195;50.854;2.860;2023-12-07T04:05:05;101738.34;;;2.94;100.00
78845;BME280;68195;50.854;2.860;2023-12-07T04:07:31;101687.69;;;2.64;100.00
78845;BME280;68195;50.854;2.860;2023-12-07T04:10:02;101748.63;;;3.02;100.00
78845;BME280;68195;50.854;2.860;2023-12-07T04:12:30;101717.69;;;2.93;100.00
78845;BME280;68195;50.854;2.860;2023-12-07T04:15:00;101709.09;;;2.83;100.00
78845;BME280;68195;50.854;2.860;2023-12-07T04:17:28;101671.34;;;2.66;100.00
78845;BME280;68195;50.854;2.860;2023-12-07T04:19:58;101669.63;;;2.64;100.00
78845;BME280;68195;50.854;2.860;2023-12-07T04:22:28;101735.72;;;3.11;100.00
78845;BME280;68195;50.854;2.860;2023-12-07T04:24:54;101621.53;;;2.37;100.00
78845;BME280;68195;50.854;2.860;2023-12-07T04:27:24;101612.94;;;2.35;100.00
78845;BME280;68195;50.854;2.860;2023-12-07T04:29:53;101605.22;;;2.33;100.00
78845;BME280;68195;50.854;2.860;2023-12-07T04:32:22;101671.31;;;2.76;100.00
78845;BME280;68195;50.854;2.860;2023-12-07T04:34:47;101733.13;;;3.14;100.00
78845;BME280;68195;50.854;2.860;2023-12-07T04:37:15;101693.66;;;2.86;100.00
78845;BME280;68195;50.854;2.860;2023-12-07T04:39:40;101689.31;;;2.85;100.00
78845;BME280;68195;50.854;2.860;2023-12-07T04:42:06;101719.34;;;3.11;100.00
78845;BME280;68195;50.854;2.860;2023-12-07T04:44:31;101721.94;;;3.12;100.00
78845;BME280;68195;50.854;2.860;2023-12-07T04:46:57;101667.00;;;2.79;100.00
78845;BME280;68195;50.854;2.860;2023-12-07T04:49:25;101662.66;;;2.89;100.00
78845;BME280;68195;50.854;2.860;2023-12-07T04:51:55;101665.22;;;2.97;100.00
78845;BME280;68195;50.854;2.860;2023-12-07T04:54:22;101615.41;;;2.76;100.00
78845;BME280;68195;50.854;2.860;2023-12-07T04:56:48;101596.56;;;2.68;100.00
78845;BME280;68195;50.854;2.860;2023-12-07T04:59:16;101670.34;;;3.09;100.00
78845;BME280;68195;50.854;2.860;2023-12-07T05:01:47;101618.81;;;2.91;100.00
78845;BME280;68195;50.854;2.860;2023-12-07T05:04:12;101567.38;;;2.54;100.00
78845;BME280;68195;50.854;2.860;2023-12-07T05:06:42;101648.03;;;2.99;100.00
78845;BME280;68195;50.854;2.860;2023-12-07T05:09:10;101637.69;;;2.99;100.00
78845;BME280;68195;50.854;2.860;2023-12-07T05:11:36;101583.66;;;2.60;100.00
78845;BME280;68195;50.854;2.860;2023-12-07T05:14:06;101616.25;;;2.84;100.00
78845;BME280;68195;50.854;2.860;2023-12-07T05:16:32;101554.50;;;2.49;100.00
78845;BME280;68195;50.854;2.860;2023-12-07T05:18:59;101591.34;;;2.79;100.00
78845;BME280;68195;50.854;2.860;2023-12-07T05:21:25;101568.16;;;2.63;100.00
78845;BME280;68195;50.854;2.860;2023-12-07T05:23:50;101590.53;;;2.71;100.00
78845;BME280;68195;50.854;2.860;2023-12-07T05:26:16;101556.22;;;2.45;100.00
78845;BME280;68195;50.854;2.860;2023-12-07T05:28:42;101642.84;;;2.96;100.00
78845;BME280;68195;50.854;2.860;2023-12-07T05:31:17;101643.75;;;2.87;100.00
78845;BME280;68195;50.854;2.860;2023-12-07T05:33:45;101613.72;;;2.69;100.00
78845;BME280;68195;50.854;2.860;2023-12-07T05:36:11;101666.06;;;2.96;100.00
78845;BME280;68195;50.854;2.860;2023-12-07T05:38:38;101599.16;;;2.56;100.00
78845;BME280;68195;50.854;2.860;2023-12-07T05:41:04;101630.06;;;2.68;100.00
78845;BME280;68195;50.854;2.860;2023-12-07T05:43:32;101623.19;;;2.65;100.00
78845;BME280;68195;50.854;2.860;2023-12-07T05:46:01;101644.66;;;2.75;100.00
78845;BME280;68195;50.854;2.860;2023-12-07T05:48:29;101604.31;;;2.53;100.00
78845;BME280;68195;50.854;2.860;2023-12-07T05:50:54;101594.00;;;2.53;100.00
78845;BME280;68195;50.854;2.860;2023-12-07T05:53:20;101579.41;;;2.45;100.00
78845;BME280;68195;50.854;2.860;2023-12-07T05:55:49;101585.44;;;2.47;100.00
78845;BME280;68195;50.854;2.860;2023-12-07T05:58:17;101645.47;;;2.94;100.00
78845;BME280;68195;50.854;2.860;2023-12-07T06:00:48;101639.41;;;2.94;100.00
78845;BME280;68195;50.854;2.860;2023-12-07T06:03:19;101578.50;;;2.60;100.00
78845;BME280;68195;50.854;2.860;2023-12-07T06:05:47;101622.28;;;2.83;100.00
78845;BME280;68195;50.854;2.860;2023-12-07T06:08:12;101595.66;;;2.77;100.00
78845;BME280;68195;50.854;2.860;2023-12-07T06:10:37;101611.97;;;2.83;100.00
78845;BME280;68195;50.854;2.860;2023-12-07T06:13:03;101635.94;;;3.05;100.00
78845;BME280;68195;50.854;2.860;2023-12-07T06:15:30;101490.97;;;2.28;100.00
78845;BME280;68195;50.854;2.860;2023-12-07T06:17:55;101575.00;;;2.74;100.00
78845;BME280;68195;50.854;2.860;2023-12-07T06:20:27;101510.69;;;2.41;100.00
78845;BME280;68195;50.854;2.860;2023-12-07T06:22:52;101602.41;;;3.04;100.00
78845;BME280;68195;50.854;2.860;2023-12-07T06:25:20;101528.66;;;2.61;100.00
78845;BME280;68195;50.854;2.860;2023-12-07T06:27:51;101604.09;;;3.06;100.00
78845;BME280;68195;50.854;2.860;2023-12-07T06:30:16;101521.75;;;2.65;100.00
78845;BME280;68195;50.854;2.860;2023-12-07T06:32:44;101586.94;;;3.01;100.00
78845;BME280;68195;50.854;2.860;2023-12-07T06:35:13;101553.47;;;2.88;100.00
78845;BME280;68195;50.854;2.860;2023-12-07T06:37:38;101596.38;;;3.05;100.00
78845;BME280;68195;50.854;2.860;2023-12-07T06:40:08;101527.75;;;2.65;100.00
78845;BME280;68195;50.854;2.860;2023-12-07T06:42:34;101557.78;;;2.82;100.00
78845;BME280;68195;50.854;2.860;2023-12-07T06:45:01;101603.25;;;3.07;100.00
78845;BME280;68195;50.854;2.860;2023-12-07T06:47:27;101545.81;;;2.70;100.00
78845;BME280;68195;50.854;2.860;2023-12-07T06:49:55;101568.97;;;2.79;100.00
78845;BME280;68195;50.854;2.860;2023-12-07T06:52:23;101617.00;;;3.08;100.00
78845;BME280;68195;50.854;2.860;2023-12-07T06:54:51;101589.59;;;2.85;100.00
78845;BME280;68195;50.854;2.860;2023-12-07T06:57:22;101539.84;;;2.62;100.00
78845;BME280;68195;50.854;2.860;2023-12-07T06:59:47;101593.84;;;2.91;100.00
78845;BME280;68195;50.854;2.860;2023-12-07T07:02:13;101568.09;;;2.83;100.00
78845;BME280;68195;50.854;2.860;2023-12-07T07:04:40;101550.09;;;2.71;100.00
78845;BME280;68195;50.854;2.860;2023-12-07T07:07:06;101555.22;;;2.80;100.00
78845;BME280;68195;50.854;2.860;2023-12-07T07:09:36;101524.34;;;2.68;100.00
78845;BME280;68195;50.854;2.860;2023-12-07T07:12:04;101572.34;;;2.95;100.00
78845;BME280;68195;50.854;2.860;2023-12-07T07:14:30;101537.19;;;2.76;100.00
78845;BME280;68195;50.854;2.860;2023-12-07T07:17:00;101604.06;;;3.13;100.00
78845;BME280;68195;50.854;2.860;2023-12-07T07:19:25;101595.44;;;3.15;100.00
78845;BME280;68195;50.854;2.860;2023-12-07T07:21:54;101533.72;;;2.80;100.00
78845;BME280;68195;50.854;2.860;2023-12-07T07:24:19;101532.88;;;2.81;100.00
78845;BME280;68195;50.854;2.860;2023-12-07T07:26:49;101569.72;;;3.00;100.00
78845;BME280;68195;50.854;2.860;2023-12-07T07:29:15;101601.47;;;3.22;100.00
78845;BME280;68195;50.854;2.860;2023-12-07T07:31:47;101606.63;;;3.20;100.00
78845;BME280;68195;50.854;2.860;2023-12-07T07:34:13;101601.53;;;3.11;100.00
78845;BME280;68195;50.854;2.860;2023-12-07T07:36:40;101576.63;;;3.01;100.00
78845;BME280;68195;50.854;2.860;2023-12-07T07:39:09;101599.84;;;3.01;100.00
78845;BME280;68195;50.854;2.860;2023-12-07T07:41:35;101612.63;;;3.19;100.00
78845;BME280;68195;50.854;2.860;2023-12-07T07:44:01;101554.34;;;2.78;100.00
78845;BME280;68195;50.854;2.860;2023-12-07T07:46:29;101490.06;;;2.41;100.00
78845;BME280;68195;50.854;2.860;2023-12-07T07:48:57;101583.47;;;3.08;100.00
78845;BME280;68195;50.854;2.860;2023-12-07T07:51:25;101593.69;;;3.26;100.00
78845;BME280;68195;50.854;2.860;2023-12-07T07:53:53;101603.13;;;3.29;100.00
78845;BME280;68195;50.854;2.860;2023-12-07T07:56:19;101555.97;;;3.02;100.00
78845;BME280;68195;50.854;2.860;2023-12-07T07:58:47;101562.84;;;3.03;100.00
78845;BME280;68195;50.854;2.860;2023-12-07T08:01:17;101607.41;;;3.33;100.00
78845;BME280;68195;50.854;2.860;2023-12-07T08:03:45;101561.13;;;2.99;100.00
78845;BME280;68195;50.854;2.860;2023-12-07T08:06:12;101586.81;;;3.19;100.00
78845;BME280;68195;50.854;2.860;2023-12-07T08:08:38;101594.47;;;3.35;100.00
78845;BME280;68195;50.854;2.860;2023-12-07T08:11:06;101519.00;;;2.96;100.00
78845;BME280;68195;50.854;2.860;2023-12-07T08:13:31;101516.47;;;2.93;100.00
78845;BME280;68195;50.854;2.860;2023-12-07T08:15:57;101600.50;;;3.38;100.00
78845;BME280;68195;50.854;2.860;2023-12-07T08:18:25;101522.44;;;3.01;100.00
78845;BME280;68195;50.854;2.860;2023-12-07T08:20:53;101531.03;;;3.01;100.00
78845;BME280;68195;50.854;2.860;2023-12-07T08:23:21;101475.34;;;2.65;100.00
78845;BME280;68195;50.854;2.860;2023-12-07T08:25:46;101609.94;;;3.41;100.00
78845;BME280;68195;50.854;2.860;2023-12-07T08:28:14;101472.78;;;2.60;100.00
78845;BME280;68195;50.854;2.860;2023-12-07T08:30:41;101565.28;;;3.23;100.00
78845;BME280;68195;50.854;2.860;2023-12-07T08:33:09;101602.16;;;3.47;100.00
78845;BME280;68195;50.854;2.860;2023-12-07T08:35:39;101473.59;;;2.69;100.00
78845;BME280;68195;50.854;2.860;2023-12-07T08:38:06;101589.31;;;3.35;100.00
78845;BME280;68195;50.854;2.860;2023-12-07T08:40:32;101555.84;;;3.21;100.00
78845;BME280;68195;50.854;2.860;2023-12-07T08:42:57;101597.00;;;3.45;100.00
78845;BME280;68195;50.854;2.860;2023-12-07T08:45:22;101602.16;;;3.50;100.00
78845;BME280;68195;50.854;2.860;2023-12-07T08:47:51;101549.88;;;3.14;100.00
78845;BME280;68195;50.854;2.860;2023-12-07T08:50:18;101520.69;;;3.01;100.00
78845;BME280;68195;50.854;2.860;2023-12-07T08:52:47;101594.41;;;3.50;100.00
78845;BME280;68195;50.854;2.860;2023-12-07T08:55:14;101560.94;;;3.32;100.00
78845;BME280;68195;50.854;2.860;2023-12-07T08:57:40;101565.97;;;3.52;100.00
78845;BME280;68195;50.854;2.860;2023-12-07T09:00:06;101530.78;;;3.40;100.00
78845;BME280;68195;50.854;2.860;2023-12-07T09:02:36;101483.59;;;3.21;100.00
78845;BME280;68195;50.854;2.860;2023-12-07T09:05:05;101528.13;;;3.49;100.00
78845;BME280;68195;50.854;2.860;2023-12-07T09:07:33;101541.78;;;3.62;100.00
78845;BME280;68195;50.854;2.860;2023-12-07T09:10:00;101560.72;;;3.64;100.00
78845;BME280;68195;50.854;2.860;2023-12-07T09:12:29;101540.94;;;3.60;100.00
78845;BME280;68195;50.854;2.860;2023-12-07T09:14:56;101523.66;;;3.65;100.00
78845;BME280;68195;50.854;2.860;2023-12-07T09:17:24;101361.78;;;2.76;100.00
78845;BME280;68195;50.854;2.860;2023-12-07T09:19:49;101439.63;;;3.32;100.00
78845;BME280;68195;50.854;2.860;2023-12-07T09:22:17;101511.59;;;3.68;100.00
78845;BME280;68195;50.854;2.860;2023-12-07T09:24:45;101509.00;;;3.70;100.00
78845;BME280;68195;50.854;2.860;2023-12-07T09:27:13;101460.97;;;3.47;100.00
78845;BME280;68195;50.854;2.860;2023-12-07T09:29:38;101409.53;;;3.27;100.00
78845;BME280;68195;50.854;2.860;2023-12-07T09:32:04;101396.63;;;3.31;100.00
78845;BME280;68195;50.854;2.860;2023-12-07T09:34:32;101471.78;;;3.86;100.00
78845;BME280;68195;50.854;2.860;2023-12-07T09:37:10;101434.16;;;3.65;100.00
78845;BME280;68195;50.854;2.860;2023-12-07T09:39:38;101457.22;;;3.81;100.00
78845;BME280;68195;50.854;2.860;2023-12-07T09:42:06;101474.41;;;3.85;100.00
78845;BME280;68195;50.854;2.860;2023-12-07T09:44:34;101462.41;;;3.81;100.00
78845;BME280;68195;50.854;2.860;2023-12-07T09:46:59;101481.34;;;3.80;100.00
78845;BME280;68195;50.854;2.860;2023-12-07T09:49:25;101428.25;;;3.49;100.00
78845;BME280;68195;50.854;2.860;2023-12-07T09:51:54;101464.09;;;3.82;100.00
78845;BME280;68195;50.854;2.860;2023-12-07T09:54:24;101414.44;;;3.57;100.00
78845;BME280;68195;50.854;2.860;2023-12-07T09:56:54;101406.75;;;3.49;100.00
78845;BME280;68195;50.854;2.860;2023-12-07T09:59:20;101397.38;;;3.40;100.00
78845;BME280;68195;50.854;2.860;2023-12-07T10:01:48;101391.34;;;3.41;100.00
78845;BME280;68195;50.854;2.860;2023-12-07T10:04:22;101446.03;;;3.80;100.00
78845;BME280;68195;50.854;2.860;2023-12-07T10:06:56;101427.22;;;3.67;100.00
78845;BME280;68195;50.854;2.860;2023-12-07T10:09:25;101398.09;;;3.53;100.00
78845;BME280;68195;50.854;2.860;2023-12-07T10:12:01;101396.41;;;3.49;100.00
78845;BME280;68195;50.854;2.860;2023-12-07T10:14:31;101455.31;;;3.97;100.00
78845;BME280;68195;50.854;2.860;2023-12-07T10:16:57;101417.53;;;3.89;100.00
78845;BME280;68195;50.854;2.860;2023-12-07T10:19:25;101365.31;;;3.58;100.00
78845;BME280;68195;50.854;2.860;2023-12-07T10:21:52;101402.16;;;3.77;100.00
78845;BME280;68195;50.854;2.860;2023-12-07T10:24:22;101419.06;;;4.03;100.00
78845;BME280;68195;50.854;2.860;2023-12-07T10:26:52;101405.38;;;3.98;100.00
78845;BME280;68195;50.854;2.860;2023-12-07T10:29:17;101420.69;;;4.13;100.00
78845;BME280;68195;50.854;2.860;2023-12-07T10:31:48;101316.25;;;3.60;100.00
78845;BME280;68195;50.854;2.860;2023-12-07T10:34:17;101343.50;;;3.84;100.00
78845;BME280;68195;50.854;2.860;2023-12-07T10:36:48;101385.28;;;4.20;100.00
78845;BME280;68195;50.854;2.860;2023-12-07T10:39:18;101347.63;;;3.97;100.00
78845;BME280;68195;50.854;2.860;2023-12-07T10:41:45;101316.81;;;3.85;100.00
78845;BME280;68195;50.854;2.860;2023-12-07T10:44:14;101369.78;;;4.18;100.00
78845;BME280;68195;50.854;2.860;2023-12-07T10:46:42;101353.56;;;4.05;100.00
78845;BME280;68195;50.854;2.860;2023-12-07T10:49:17;101374.81;;;4.27;100.00
78845;BME280;68195;50.854;2.860;2023-12-07T10:51:51;101310.69;;;3.90;100.00
78845;BME280;68195;50.854;2.860;2023-12-07T10:54:27;101261.94;;;3.67;100.00
78845;BME280;68195;50.854;2.860;2023-12-07T10:56:58;101337.00;;;4.20;100.00
78845;BME280;68195;50.854;2.860;2023-12-07T10:59:32;101319.03;;;4.13;100.00
78845;BME280;68195;50.854;2.860;2023-12-07T11:02:01;101289.00;;;4.02;100.00
78845;BME280;68195;50.854;2.860;2023-12-07T11:04:27;101308.56;;;4.19;100.00
78845;BME280;68195;50.854;2.860;2023-12-07T11:06:56;101291.53;;;4.07;100.00
78845;BME280;68195;50.854;2.860;2023-12-07T11:09:31;101311.97;;;4.24;100.00
78845;BME280;68195;50.854;2.860;2023-12-07T11:12:36;101297.22;;;4.29;100.00
78845;BME280;68195;50.854;2.860;2023-12-07T11:15:05;101316.91;;;4.39;100.00
78845;BME280;68195;50.854;2.860;2023-12-07T11:17:47;101334.78;;;4.55;100.00
78845;BME280;68195;50.854;2.860;2023-12-07T11:20:41;101321.78;;;4.58;100.00
78845;BME280;68195;50.854;2.860;2023-12-07T11:23:10;101252.63;;;4.15;100.00
78845;BME280;68195;50.854;2.860;2023-12-07T11:25:38;101208.06;;;3.99;100.00
78845;BME280;68195;50.854;2.860;2023-12-07T11:28:07;101300.22;;;4.59;100.00
78845;BME280;68195;50.854;2.860;2023-12-07T11:30:35;101282.94;;;4.61;100.00
78845;BME280;68195;50.854;2.860;2023-12-07T11:33:01;101250.41;;;4.47;100.00
78845;BME280;68195;50.854;2.860;2023-12-07T11:35:31;101253.75;;;4.52;100.00
78845;BME280;68195;50.854;2.860;2023-12-07T11:38:07;101279.25;;;4.76;100.00
78845;BME280;68195;50.854;2.860;2023-12-07T11:40:51;101260.31;;;4.72;100.00
78845;BME280;68195;50.854;2.860;2023-12-07T11:45:59;101176.56;;;4.29;100.00
78845;BME280;68195;50.854;2.860;2023-12-07T11:48:25;101241.22;;;4.79;100.00
78845;BME280;68195;50.854;2.860;2023-12-07T11:51:04;101240.34;;;4.80;100.00
78845;BME280;68195;50.854;2.860;2023-12-07T11:53:31;101225.66;;;4.82;100.00
78845;BME280;68195;50.854;2.860;2023-12-07T11:55:58;101206.81;;;4.74;100.00
78845;BME280;68195;50.854;2.860;2023-12-07T11:58:27;101226.47;;;4.84;100.00
78845;BME280;68195;50.854;2.860;2023-12-07T12:00:53;101212.75;;;4.81;100.00
78845;BME280;68195;50.854;2.860;2023-12-07T12:03:32;101223.84;;;4.86;100.00
78845;BME280;68195;50.854;2.860;2023-12-07T12:05:58;101176.09;;;4.56;100.00
78845;BME280;68195;50.854;2.860;2023-12-07T12:08:24;101213.50;;;4.86;100.00
78845;BME280;68195;50.854;2.860;2023-12-07T12:10:50;101211.78;;;4.86;100.00
78845;BME280;68195;50.854;2.860;2023-12-07T12:13:26;101219.50;;;4.88;100.00
78845;BME280;68195;50.854;2.860;2023-12-07T12:15:55;101208.28;;;4.87;100.00
78845;BME280;68195;50.854;2.860;2023-12-07T12:18:21;101175.97;;;4.65;100.00
78845;BME280;68195;50.854;2.860;2023-12-07T12:20:47;101192.19;;;4.73;100.00
78845;BME280;68195;50.854;2.860;2023-12-07T12:23:15;101105.25;;;4.19;100.00
78845;BME280;68195;50.854;2.860;2023-12-07T12:25:43;101158.75;;;4.62;100.00
78845;BME280;68195;50.854;2.860;2023-12-07T12:28:13;101081.91;;;4.21;100.00
78845;BME280;68195;50.854;2.860;2023-12-07T12:30:40;101141.25;;;4.75;100.00
78845;BME280;68195;50.854;2.860;2023-12-07T12:33:07;101162.53;;;4.91;100.00
78845;BME280;68195;50.854;2.860;2023-12-07T12:35:35;101046.72;;;4.15;100.00
78845;BME280;68195;50.854;2.860;2023-12-07T12:38:09;101165.88;;;4.94;100.00
78845;BME280;68195;50.854;2.860;2023-12-07T12:40:35;101180.44;;;5.02;100.00
78845;BME280;68195;50.854;2.860;2023-12-07T12:43:01;101110.47;;;4.63;100.00
78845;BME280;68195;50.854;2.860;2023-12-07T12:45:27;101106.88;;;4.68;100.00
78845;BME280;68195;50.854;2.860;2023-12-07T12:47:56;101088.16;;;4.56;100.00
78845;BME280;68195;50.854;2.860;2023-12-07T12:50:38;101120.53;;;4.77;100.00
78845;BME280;68195;50.854;2.860;2023-12-07T12:53:09;101120.38;;;4.84;100.00
78845;BME280;68195;50.854;2.860;2023-12-07T12:55:40;101126.28;;;4.91;100.00
78845;BME280;68195;50.854;2.860;2023-12-07T12:58:07;101133.09;;;4.95;100.00